Time;durP1;ratioP1;P1;durP2;ratioP2;P2;SDS_P1;SDS_P2;PMS_P1;PMS_P2;Temp;Humidity;BMP_temperature;BMP_pressure;BME280_temperature;BME280_humidity;BME280_pressure;Samples;Min_cycle;Max_cycle;Signal;HPM_P1;HPM_P2
2021/04/27 05:31:56;;;;;;;44.38;22.27;;;;;;;1.00;72.31;100440.52;1767195;76;25894;-63
2021/04/27 05:34:22;;;;;;;37.33;20.97;;;;;;;1.19;72.06;100438.95;1731557;82;25530;-63
2021/04/27 05:36:49;;;;;;;33.33;19.50;;;;;;;1.35;71.78;100441.34;1746542;81;25693;-63
2021/04/27 05:39:18;;;;;;;36.77;21.23;;;;;;;1.52;71.47;100446.12;1734085;82;26639;-63
2021/04/27 05:41:47;;;;;;;33.60;18.57;;;;;;;1.70;71.27;100443.69;1742124;82;25656;-63
2021/04/27 05:44:15;;;;;;;32.45;18.80;;;;;;;1.89;70.83;100436.73;1742142;82;25613;-64
2021/04/27 05:46:41;;;;;;;22.87;13.08;;;;;;;2.07;70.54;100440.43;1742021;82;25641;-64
2021/04/27 05:49:12;;;;;;;26.15;13.15;;;;;;;2.30;69.99;100444.72;1741753;82;25621;-62
2021/04/27 05:51:40;;;;;;;25.10;13.25;;;;;;;2.53;69.61;100442.81;1742017;81;27013;-63
2021/04/27 05:54:08;;;;;;;20.13;12.20;;;;;;;2.73;68.52;100451.56;1742157;82;25594;-62
2021/04/27 05:56:36;;;;;;;21.42;9.85;;;;;;;2.96;68.61;100451.75;1738238;80;26287;-62
2021/04/27 05:59:04;;;;;;;16.73;9.95;;;;;;;3.24;68.36;100455.21;1738929;80;26315;-63
2021/04/27 06:01:31;;;;;;;9.73;5.85;;;;;;;3.49;67.40;100455.90;1742241;82;25612;-63
2021/04/27 06:03:57;;;;;;;12.10;6.40;;;;;;;3.71;66.54;100459.78;1741997;82;26007;-63
2021/04/27 06:06:24;;;;;;;10.80;6.95;;;;;;;3.93;65.35;100457.78;1741932;82;25506;-62
2021/04/27 06:08:50;;;;;;;16.23;8.73;;;;;;;4.17;65.12;100461.38;1747299;80;25661;-63
2021/04/27 06:11:17;;;;;;;12.00;7.25;;;;;;;4.38;64.56;100455.54;1771996;80;25594;-64
2021/04/27 06:13:44;;;;;;;10.20;6.72;;;;;;;4.66;63.93;100453.45;1772607;80;25541;-63
2021/04/27 06:16:11;;;;;;;10.78;5.37;;;;;;;4.88;63.00;100459.92;1772683;80;26175;-63
2021/04/27 06:18:37;;;;;;;5.05;3.12;;;;;;;5.11;62.17;100451.91;1797621;79;25524;-62
2021/04/27 06:21:06;;;;;;;6.17;3.50;;;;;;;5.36;60.31;100459.66;1764371;80;26171;-63
2021/04/27 06:23:34;;;;;;;3.10;2.33;;;;;;;5.60;58.92;100462.05;1768089;79;25641;-63
2021/04/27 06:26:01;;;;;;;3.80;2.20;;;;;;;5.80;58.18;100453.67;1764261;80;25711;-63
2021/04/27 06:28:27;;;;;;;5.10;2.33;;;;;;;6.01;56.75;100454.46;1797962;79;25684;-62
2021/04/27 06:30:54;;;;;;;7.12;2.83;;;;;;;6.24;56.50;100461.06;1762324;80;25724;-63
2021/04/27 06:33:21;;;;;;;3.80;2.87;;;;;;;6.54;56.77;100451.26;1785591;79;25608;-63
2021/04/27 06:35:47;;;;;;;3.90;2.62;;;;;;;6.89;56.29;100449.40;1751017;81;25572;-64
2021/04/27 06:38:17;;;;;;;3.87;2.12;;;;;;;7.18;54.86;100452.67;1784571;79;25713;-63
2021/04/27 06:40:46;;;;;;;3.70;2.33;;;;;;;7.41;54.02;100451.94;1758049;81;25783;-63
2021/04/27 06:43:13;;;;;;;3.27;2.02;;;;;;;7.67;53.20;100448.98;1771587;81;25577;-64
2021/04/27 06:52:14;;;;;;;4.35;2.20;;;;;;;8.67;50.60;100448.34;1702195;80;26555;-62
2021/04/27 06:54:41;;;;;;;2.67;1.80;;;;;;;8.97;49.51;100447.05;1697448;83;25800;-63
2021/04/27 06:57:09;;;;;;;2.35;1.72;;;;;;;9.25;49.09;100445.25;1703198;83;25563;-63
2021/04/27 06:59:36;;;;;;;2.80;2.10;;;;;;;9.51;47.88;100444.80;1703314;84;25611;-64
2021/04/27 07:02:05;;;;;;;3.70;2.08;;;;;;;9.78;47.24;100452.69;1703123;84;25601;-64
2021/04/27 07:04:34;;;;;;;3.60;2.10;;;;;;;9.89;45.91;100444.09;1698282;84;25599;-64
2021/04/27 07:07:00;;;;;;;2.77;1.90;;;;;;;10.17;45.92;100454.09;1697324;84;25760;-63
2021/04/27 07:09:29;;;;;;;9.78;6.37;;;;;;;10.48;45.67;100452.90;1697159;84;25598;-65
2021/04/27 07:11:57;;;;;;;4.10;3.30;;;;;;;10.84;45.38;100448.84;1701890;83;25591;-63
2021/04/27 07:14:24;;;;;;;1.80;1.30;;;;;;;11.20;44.48;100452.58;1698890;84;25626;-63
2021/04/27 07:16:51;;;;;;;2.12;1.20;;;;;;;11.47;43.01;100447.55;1692656;84;25209;-63
2021/04/27 07:19:17;;;;;;;3.52;1.40;;;;;;;11.74;42.27;100447.13;1692908;84;26331;-64
2021/04/27 07:21:44;;;;;;;1.80;1.30;;;;;;;12.07;41.66;100447.59;1691766;84;25563;-64
2021/04/27 07:24:12;;;;;;;2.77;1.40;;;;;;;12.39;41.36;100449.63;1692639;84;25686;-63
2021/04/27 07:26:41;;;;;;;2.55;1.37;;;;;;;12.68;40.68;100451.76;1692496;84;25571;-64
2021/04/27 07:29:09;;;;;;;1.77;1.30;;;;;;;12.95;39.86;100448.45;1692769;84;25559;-63
2021/04/27 07:31:38;;;;;;;1.62;1.22;;;;;;;13.27;38.45;100448.48;1692719;84;26617;-63
2021/04/27 07:34:06;;;;;;;1.20;1.10;;;;;;;13.58;38.06;100450.75;1717310;82;25661;-64
2021/04/27 07:36:34;;;;;;;3.00;1.20;;;;;;;13.89;37.51;100450.45;1733202;82;25665;-63
2021/04/27 07:39:04;;;;;;;1.80;1.25;;;;;;;14.27;37.55;100447.45;1725378;82;25606;-64
2021/04/27 07:41:31;;;;;;;2.85;1.52;;;;;;;14.43;35.96;100450.40;1692995;84;25683;-63
2021/04/27 07:43:58;;;;;;;3.52;1.37;;;;;;;14.23;33.97;100453.32;1693002;84;26637;-62
2021/04/27 07:46:25;;;;;;;5.00;2.00;;;;;;;13.89;34.59;100453.74;1692954;84;25623;-63
2021/04/27 07:48:52;;;;;;;5.42;2.70;;;;;;;13.72;34.81;100450.53;1692972;84;25588;-63
2021/04/27 07:51:21;;;;;;;8.55;2.47;;;;;;;13.45;34.62;100455.28;1693887;84;25583;-61
2021/04/27 07:53:48;;;;;;;4.83;1.95;;;;;;;13.26;34.35;100448.80;1687922;83;25592;-63
2021/04/27 07:56:16;;;;;;;4.58;1.87;;;;;;;13.01;34.37;100447.19;1690261;84;25716;-63
2021/04/27 07:58:43;;;;;;;4.72;1.80;;;;;;;13.29;34.92;100450.87;1685328;84;25559;-63
2021/04/27 08:01:10;;;;;;;2.87;1.92;;;;;;;13.82;34.40;100451.53;1685783;85;25475;-63
2021/04/27 08:03:38;;;;;;;5.10;1.57;;;;;;;14.26;33.76;100454.03;1685715;84;25540;-63
2021/04/27 08:06:05;;;;;;;1.98;1.55;;;;;;;14.06;32.85;100457.73;1685753;84;25560;-63
2021/04/27 08:08:33;;;;;;;3.00;1.80;;;;;;;14.18;32.81;100457.84;1685668;84;25800;-64
2021/04/27 08:11:01;;;;;;;3.80;1.72;;;;;;;14.20;31.97;100456.16;1685647;85;25564;-63
2021/04/27 08:13:28;;;;;;;2.75;1.70;;;;;;;14.60;31.30;100453.59;1685505;84;25624;-63
2021/04/27 08:15:55;;;;;;;4.00;2.05;;;;;;;14.97;31.61;100464.67;1685085;85;25695;-64
2021/04/27 08:18:21;;;;;;;4.67;1.47;;;;;;;14.60;31.07;100452.23;1684495;85;25529;-65
2021/04/27 08:20:49;;;;;;;6.05;1.62;;;;;;;14.15;30.50;100455.77;1713774;83;25724;-64
2021/04/27 08:23:16;;;;;;;2.27;1.85;;;;;;;13.76;30.70;100457.72;1691036;82;25746;-64
2021/04/27 08:25:43;;;;;;;3.10;1.67;;;;;;;13.42;31.29;100451.28;1707255;82;25605;-65
2021/04/27 08:28:13;;;;;;;1.75;1.40;;;;;;;13.13;30.63;100453.86;1707207;84;26210;-64
2021/04/27 08:30:40;;;;;;;3.08;1.20;;;;;;;12.70;30.88;100461.73;1683241;85;25665;-64
2021/04/27 08:33:07;;;;;;;2.50;1.40;;;;;;;12.48;31.20;100461.84;1699245;84;25812;-65
2021/04/27 08:35:34;;;;;;;2.20;1.27;;;;;;;12.23;30.40;100460.14;1705198;84;25647;-65
2021/04/27 08:38:01;;;;;;;2.58;1.27;;;;;;;12.51;30.69;100457.97;1707280;84;25696;-65
2021/04/27 08:40:28;;;;;;;1.47;1.20;;;;;;;13.11;31.20;100450.67;1707066;84;25636;-65
2021/04/27 08:42:54;;;;;;;1.82;1.20;;;;;;;13.89;31.48;100453.17;1710834;82;25699;-65
2021/04/27 08:45:21;;;;;;;2.67;1.37;;;;;;;14.56;30.98;100443.91;1707221;84;25717;-64
2021/04/27 08:47:48;;;;;;;3.80;1.20;;;;;;;15.37;31.15;100438.21;1706997;84;26422;-64
2021/04/27 08:50:18;;;;;;;3.27;1.40;;;;;;;15.85;29.86;100443.51;1713635;82;25754;-65
2021/04/27 08:52:45;;;;;;;3.70;1.42;;;;;;;16.19;28.96;100453.17;1721696;83;25696;-64
2021/04/27 08:55:13;;;;;;;3.05;1.32;;;;;;;15.86;28.28;100453.30;1721796;82;25643;-64
2021/04/27 08:57:41;;;;;;;2.65;1.45;;;;;;;15.30;27.14;100445.00;1721783;82;26407;-64
2021/04/27 09:00:13;;;;;;;1.92;1.30;;;;;;;14.61;27.14;100451.90;1703458;83;25629;-64
2021/04/27 09:02:40;;;;;;;2.72;1.20;;;;;;;13.94;27.66;100450.84;1721116;82;25571;-64
2021/04/27 09:05:21;;;;;;;1.92;1.20;;;;;;;13.21;27.78;100447.61;1703419;83;25632;-64
2021/04/27 09:07:48;;;;;;;1.30;1.20;;;;;;;12.70;28.46;100456.84;1721860;82;26286;-64
2021/04/27 09:10:20;;;;;;;2.42;1.20;;;;;;;12.35;29.02;100452.75;1721807;83;25704;-65
2021/04/27 09:12:50;;;;;;;2.67;1.92;;;;;;;12.33;29.47;100454.42;1727518;82;25627;-65
2021/04/27 09:15:35;;;;;;;3.27;1.30;;;;;;;12.69;29.42;100454.69;1718914;82;25801;-64
2021/04/27 09:18:34;;;;;;;5.40;1.72;;;;;;;12.74;29.63;100457.02;1703967;82;25637;-65
2021/04/27 09:21:06;;;;;;;2.80;1.60;;;;;;;12.66;29.66;100459.39;1700131;84;25642;-64
2021/04/27 09:23:37;;;;;;;2.62;1.55;;;;;;;12.51;29.43;100453.08;1700083;84;25885;-65
2021/04/27 09:26:19;;;;;;;3.15;1.67;;;;;;;12.27;28.69;100453.53;1701328;82;26302;-64
2021/04/27 09:28:49;;;;;;;3.72;1.55;;;;;;;11.87;29.40;100451.64;1707270;82;25669;-64
2021/04/27 09:31:38;;;;;;;3.30;1.42;;;;;;;11.67;30.05;100450.28;1706891;84;25607;-63
2021/04/27 09:34:27;;;;;;;1.75;1.40;;;;;;;11.57;29.66;100443.22;1707262;84;25611;-64
2021/04/27 09:37:02;;;;;;;2.80;1.37;;;;;;;11.48;30.46;100440.25;1707375;82;25931;-64
2021/04/27 09:39:47;;;;;;;4.87;1.42;;;;;;;11.58;31.20;100445.39;1706419;83;25583;-64
2021/04/27 09:42:23;;;;;;;2.70;1.15;;;;;;;12.07;30.86;100445.42;1729230;82;25562;-63
2021/04/27 09:44:57;;;;;;;2.00;1.37;;;;;;;12.33;30.87;100436.80;1730042;82;25685;-63
2021/04/27 09:47:31;;;;;;;1.35;1.00;;;;;;;12.60;30.74;100436.80;1730390;82;25570;-63
2021/04/27 09:50:09;;;;;;;2.35;1.00;;;;;;;12.67;29.92;100440.66;1730583;82;26592;-64
2021/04/27 09:52:46;;;;;;;3.98;1.40;;;;;;;12.66;29.69;100440.40;1734817;82;25670;-64
2021/04/27 09:55:20;;;;;;;2.87;1.70;;;;;;;12.64;29.54;100439.92;1740720;82;25547;-66
2021/04/27 09:57:53;;;;;;;2.50;1.57;;;;;;;12.63;29.53;100440.23;1744220;81;25578;-64
2021/04/27 10:00:39;;;;;;;4.95;1.60;;;;;;;12.49;28.89;100437.69;1745919;81;25539;-65
2021/04/27 10:03:12;;;;;;;1.80;1.47;;;;;;;12.21;29.01;100439.33;1743665;81;25686;-64
2021/04/27 10:05:42;;;;;;;1.35;1.25;;;;;;;11.90;28.79;100444.78;1698032;84;26228;-65
2021/04/27 10:08:13;;;;;;;3.27;1.47;;;;;;;11.71;29.21;100436.38;1703325;84;25608;-65
2021/04/27 10:10:41;;;;;;;2.12;1.52;;;;;;;11.80;30.15;100436.94;1703351;84;25632;-64
2021/04/27 10:13:10;;;;;;;1.77;1.45;;;;;;;12.13;30.78;100439.54;1703370;84;25670;-64
2021/04/27 10:15:38;;;;;;;4.85;1.47;;;;;;;12.47;29.91;100440.71;1702061;84;26281;-65
2021/04/27 10:18:09;;;;;;;2.47;1.47;;;;;;;12.42;29.46;100442.22;1698688;84;25830;-54
2021/04/27 10:20:38;;;;;;;3.17;1.50;;;;;;;12.74;29.90;100433.95;1716327;83;25585;-64
2021/04/27 10:23:09;;;;;;;2.07;1.30;;;;;;;13.00;29.31;100434.71;1716339;83;25682;-65
2021/04/27 10:25:36;;;;;;;3.20;1.40;;;;;;;12.84;29.25;100430.91;1716357;83;25595;-65
2021/04/27 10:28:11;;;;;;;4.45;1.30;;;;;;;12.81;29.19;100434.27;1716160;82;25710;-63
2021/04/27 10:31:01;;;;;;;6.53;1.65;;;;;;;12.55;29.01;100437.78;1721802;82;26359;-65
2021/04/27 10:33:28;;;;;;;3.67;1.42;;;;;;;12.29;28.17;100439.91;1614460;87;25712;-64
2021/04/27 10:36:09;;;;;;;5.20;1.90;;;;;;;11.94;29.08;100433.60;1628916;87;25644;-66
2021/04/27 10:38:50;;;;;;;2.02;1.52;;;;;;;11.87;29.86;100434.59;1642797;86;26296;-64
2021/04/27 10:41:22;;;;;;;3.17;1.45;;;;;;;11.93;30.51;100431.99;1621402;88;26664;-63
2021/04/27 10:44:00;;;;;;;4.08;1.70;;;;;;;11.99;29.45;100434.02;1613791;88;25914;-66
2021/04/27 10:46:39;;;;;;;2.22;1.50;;;;;;;11.84;28.86;100433.30;1641515;86;25672;-63
2021/04/27 10:49:38;;;;;;;3.47;1.37;;;;;;;11.56;28.96;100432.69;1641073;86;25724;-64
2021/04/27 10:52:07;;;;;;;4.05;1.60;;;;;;;11.42;29.28;100425.23;1631938;87;25783;-64
2021/04/27 10:54:37;;;;;;;1.90;1.47;;;;;;;11.29;30.18;100422.84;1574300;89;26586;-64
2021/04/27 10:57:10;;;;;;;1.62;1.40;;;;;;;11.32;29.87;100420.87;1589062;89;25816;-64
2021/04/27 11:00:02;;;;;;;2.00;1.50;;;;;;;11.34;30.22;100422.70;1588752;89;25704;-64
2021/04/27 11:02:31;;;;;;;1.35;1.17;;;;;;;11.21;28.95;100414.36;1588406;89;25739;-65
2021/04/27 11:05:18;;;;;;;6.50;1.50;;;;;;;11.14;29.61;100415.92;1608131;88;26341;-64
2021/04/27 11:07:46;;;;;;;1.87;1.67;;;;;;;11.22;30.09;100411.13;1649725;85;26739;-64
2021/04/27 11:10:20;;;;;;;3.95;1.82;;;;;;;11.23;29.92;100415.97;1632874;87;25996;-63
2021/04/27 11:13:00;;;;;;;2.10;1.25;;;;;;;11.18;30.07;100406.06;1632665;87;26216;-62
2021/04/27 11:15:34;;;;;;;9.70;1.87;;;;;;;11.30;30.08;100412.27;1636069;84;25691;-65
2021/04/27 11:18:11;;;;;;;3.05;1.70;;;;;;;11.38;30.40;100406.09;1678612;85;26254;-55
2021/04/27 11:20:59;;;;;;;1.92;1.50;;;;;;;11.53;30.60;100403.54;1679784;84;28011;-59
2021/04/27 11:23:48;;;;;;;5.03;1.50;;;;;;;11.73;30.69;100404.87;1679663;84;25651;-55
2021/04/27 11:26:41;;;;;;;3.95;1.95;;;;;;;11.88;30.57;100402.30;1680734;84;25643;-56
2021/04/27 11:29:19;;;;;;;4.00;1.77;;;;;;;12.01;30.48;100400.61;1678335;85;25598;-55
2021/04/27 11:32:10;;;;;;;4.90;1.50;;;;;;;12.04;30.14;100397.28;1681876;84;25626;-56
2021/04/27 11:35:16;;;;;;;3.70;1.45;;;;;;;12.11;29.76;100401.67;1669727;83;25734;-56
2021/04/27 11:37:52;;;;;;;7.50;1.80;;;;;;;12.15;30.24;100403.41;1682541;85;25547;-56
2021/04/27 11:40:36;;;;;;;8.10;2.47;;;;;;;12.34;30.20;100403.68;1682546;85;25548;-56
2021/04/27 11:43:12;;;;;;;6.10;2.45;;;;;;;12.67;30.20;100393.16;1682548;85;25731;-56
2021/04/27 11:45:48;;;;;;;3.80;2.58;;;;;;;12.89;30.12;100390.03;1682674;85;25604;-56
2021/04/27 11:48:21;;;;;;;5.92;2.08;;;;;;;13.20;30.12;100387.64;1680116;83;25777;-56
2021/04/27 11:50:52;;;;;;;2.90;1.60;;;;;;;13.71;29.36;100395.38;1678986;84;25675;-55
2021/04/27 11:53:26;;;;;;;5.28;2.02;;;;;;;13.95;29.26;100389.91;1679972;84;25646;-56
2021/04/27 11:55:54;;;;;;;3.62;2.22;;;;;;;14.27;29.00;100395.21;1679458;82;25779;-55
2021/04/27 11:58:32;;;;;;;3.45;2.00;;;;;;;14.44;28.60;100390.20;1670390;85;25461;-56
2021/04/27 12:01:01;;;;;;;2.25;1.47;;;;;;;14.60;28.27;100390.41;1680451;84;25729;-56
2021/04/27 12:03:47;;;;;;;4.25;1.75;;;;;;;14.87;28.50;100392.34;1680331;84;25585;-56
2021/04/27 12:06:18;;;;;;;4.50;1.47;;;;;;;14.94;27.87;100397.45;1679953;84;25428;-55
2021/04/27 12:08:51;;;;;;;3.37;1.45;;;;;;;14.82;28.23;100391.19;1679882;84;25378;-56
2021/04/27 12:11:33;;;;;;;2.35;1.95;;;;;;;14.68;27.62;100393.63;1669980;85;25448;-62
2021/04/27 12:14:14;;;;;;;3.05;1.50;;;;;;;14.47;27.55;100385.46;1679999;84;27144;-61
2021/04/27 12:16:45;;;;;;;3.62;1.80;;;;;;;14.24;27.54;100388.28;1679630;85;25218;-62
2021/04/27 12:19:17;;;;;;;3.50;1.70;;;;;;;13.91;27.28;100388.41;1679890;84;25766;-63
2021/04/27 12:22:06;;;;;;;6.80;1.40;;;;;;;13.53;27.13;100386.50;1679824;85;25671;-63
2021/04/27 12:24:42;;;;;;;4.10;1.17;;;;;;;13.29;27.64;100378.11;1679998;85;25678;-63
2021/04/27 12:27:20;;;;;;;7.10;1.75;;;;;;;13.25;27.97;100380.68;1679962;85;25750;-63
2021/04/27 12:30:01;;;;;;;3.80;1.82;;;;;;;13.19;27.80;100371.89;1680015;84;25925;-63
2021/04/27 12:32:30;;;;;;;3.40;1.45;;;;;;;13.43;28.83;100374.09;1679982;84;25257;-61
2021/04/27 12:35:12;;;;;;;2.75;1.57;;;;;;;13.94;27.47;100365.97;1679947;85;25674;-63
2021/04/27 12:37:45;;;;;;;2.10;1.50;;;;;;;14.35;27.34;100369.05;1680115;84;25636;-63
2021/04/27 12:40:22;;;;;;;1.70;1.37;;;;;;;15.19;27.58;100356.67;1680129;84;25704;-63
2021/04/27 12:42:56;;;;;;;1.85;1.55;;;;;;;15.81;27.12;100373.06;1680066;84;25643;-63
2021/04/27 12:45:24;;;;;;;2.83;1.50;;;;;;;16.48;26.50;100374.87;1702323;83;26301;-62
2021/04/27 12:48:03;;;;;;;3.60;2.15;;;;;;;17.12;26.30;100372.30;1715703;82;25597;-61
2021/04/27 12:50:31;;;;;;;2.33;1.32;;;;;;;17.65;25.87;100370.66;1702886;82;25906;-63
2021/04/27 12:53:03;;;;;;;1.35;1.25;;;;;;;17.86;25.35;100371.20;1718178;83;25792;-62
2021/04/27 12:55:34;;;;;;;3.62;1.60;;;;;;;17.92;24.65;100371.12;1694649;83;25558;-63
2021/04/27 12:58:15;;;;;;;4.05;1.62;;;;;;;17.86;24.81;100362.14;1686680;83;26292;-63
2021/04/27 13:01:01;;;;;;;2.33;1.50;;;;;;;17.81;24.43;100361.87;1685464;83;26433;-62
2021/04/27 13:03:47;;;;;;;3.55;1.72;;;;;;;17.55;24.00;100363.78;1655518;86;25525;-62
2021/04/27 13:06:28;;;;;;;2.98;1.80;;;;;;;17.08;24.13;100364.59;1656354;86;26313;-62
2021/04/27 13:09:16;;;;;;;2.22;1.40;;;;;;;16.64;24.27;100363.98;1656977;84;25648;-62
2021/04/27 13:12:03;;;;;;;3.65;1.40;;;;;;;16.20;24.17;100366.64;1661908;84;25752;-62
2021/04/27 13:14:38;;;;;;;3.22;2.47;;;;;;;15.82;24.53;100363.18;1669131;84;26671;-62
2021/04/27 13:17:07;;;;;;;4.78;1.87;;;;;;;15.52;24.93;100357.14;1669036;85;25764;-63
2021/04/27 13:20:00;;;;;;;4.67;1.65;;;;;;;15.40;25.07;100348.97;1670347;85;25924;-62
2021/04/27 13:22:38;;;;;;;5.50;1.85;;;;;;;15.31;25.21;100344.98;1847224;76;25515;-62
2021/04/27 13:25:17;;;;;;;3.02;1.32;;;;;;;15.25;25.49;100347.70;1817295;78;26198;-63
2021/04/27 13:27:52;;;;;;;2.12;1.50;;;;;;;15.36;25.43;100344.77;1817353;78;25673;-63
2021/04/27 13:30:27;;;;;;;2.80;1.87;;;;;;;15.62;25.68;100342.27;1816663;78;26344;-62
2021/04/27 13:33:17;;;;;;;1.85;1.62;;;;;;;15.61;25.33;100336.58;1817875;78;25680;-63
2021/04/27 13:35:54;;;;;;;4.03;2.33;;;;;;;15.59;25.16;100339.64;1817389;78;25635;-62
2021/04/27 13:38:27;;;;;;;2.30;1.80;;;;;;;16.05;25.48;100343.59;1817872;78;25516;-63
2021/04/27 13:40:57;;;;;;;4.50;2.00;;;;;;;16.28;24.43;100343.06;1817843;78;25795;-63
2021/04/27 13:43:32;;;;;;;2.35;1.70;;;;;;;16.39;24.39;100340.87;1817791;78;25467;-62
2021/04/27 13:46:01;;;;;;;3.12;1.57;;;;;;;16.31;24.41;100339.10;1817925;78;26356;-63
2021/04/27 13:48:28;;;;;;;;;;;;;;;16.13;23.82;100339.15;1820612;78;25556;-61
2021/04/27 13:50:59;;;;;;;4.05;1.60;;;;;;;15.84;23.89;100334.99;1817954;78;25658;-62
2021/04/27 13:53:30;;;;;;;3.87;1.65;;;;;;;15.65;24.48;100334.77;1817799;78;25695;-62
2021/04/27 13:56:00;;;;;;;2.98;2.22;;;;;;;15.62;24.81;100332.72;1817779;78;25683;-63
2021/04/27 13:58:29;;;;;;;;;;;;;;;15.55;24.56;100329.20;1820495;78;25655;-60
2021/04/27 14:00:57;;;;;;;4.00;1.70;;;;;;;15.47;24.78;100319.20;1817932;78;25738;-63
2021/04/27 14:03:25;;;;;;;2.33;1.77;;;;;;;15.77;25.42;100321.14;1786239;78;25749;-62
2021/04/27 14:05:53;;;;;;;5.17;2.05;;;;;;;16.18;24.53;100321.17;1817835;78;26060;-62
2021/04/27 14:08:20;;;;;;;1.72;1.60;;;;;;;16.33;24.78;100317.70;1817648;78;25604;-63
2021/04/27 14:10:50;;;;;;;4.30;1.80;;;;;;;16.58;24.92;100314.86;1810678;77;25578;-63
2021/04/27 14:13:17;;;;;;;4.47;1.98;;;;;;;16.78;24.47;100312.47;1758960;78;26201;-63
2021/04/27 14:15:49;;;;;;;2.75;1.80;;;;;;;16.88;23.76;100313.14;1754400;80;25649;-63
2021/04/27 14:18:16;;;;;;;2.62;1.92;;;;;;;16.97;24.16;100307.73;1785274;80;25774;-62
2021/04/27 14:20:43;;;;;;;4.40;1.85;;;;;;;17.11;23.95;100305.94;1785480;79;25642;-62
2021/04/27 14:23:12;;;;;;;2.50;1.95;;;;;;;17.20;23.92;100299.47;1761927;79;25658;-63
2021/04/27 14:25:41;;;;;;;3.15;2.05;;;;;;;17.21;23.63;100299.13;1793949;79;26140;-63
2021/04/27 14:28:13;;;;;;;3.63;2.07;;;;;;;17.10;23.31;100303.55;1794177;79;25864;-63
2021/04/27 14:30:43;;;;;;;4.00;1.80;;;;;;;16.77;23.12;100297.80;1794485;79;25946;-63
2021/04/27 14:33:12;;;;;;;2.70;2.05;;;;;;;16.60;23.53;100302.45;1794040;79;25663;-63
2021/04/27 14:35:41;;;;;;;2.12;1.90;;;;;;;16.48;23.31;100300.34;1793882;79;25660;-63
2021/04/27 14:38:08;;;;;;;3.47;2.15;;;;;;;16.37;23.83;100306.30;1793947;79;32348;-63
2021/04/27 14:40:36;;;;;;;3.70;2.05;;;;;;;16.38;24.11;100301.08;1793994;79;25605;-62
2021/04/27 14:43:06;;;;;;;4.65;2.45;;;;;;;16.33;23.77;100305.42;1767267;79;25972;-63
2021/04/27 14:45:33;;;;;;;;;;;;;;;16.22;24.04;100302.38;1796509;79;25922;-63
2021/04/27 14:48:00;;;;;;;3.52;2.27;;;;;;;16.17;23.83;100300.47;1793979;79;26308;-63
2021/04/27 14:50:29;;;;;;;6.08;2.02;;;;;;;16.03;23.97;100293.46;1793822;79;25598;-63
2021/04/27 14:52:58;;;;;;;4.47;1.87;;;;;;;15.92;24.09;100299.19;1826208;78;25565;-63
2021/04/27 14:55:27;;;;;;;1.80;1.67;;;;;;;15.68;24.28;100291.80;1826571;78;25759;-62
2021/04/27 14:57:55;;;;;;;2.27;1.72;;;;;;;15.43;24.06;100293.78;1826501;78;25674;-63
2021/04/27 15:00:25;;;;;;;3.42;1.82;;;;;;;15.07;24.04;100291.28;1825797;78;25635;-63
2021/04/27 15:02:52;;;;;;;3.83;2.00;;;;;;;14.59;24.06;100288.09;1826882;78;25694;-62
2021/04/27 15:05:22;;;;;;;4.85;2.27;;;;;;;14.23;24.59;100286.02;1826889;78;25498;-62
2021/04/27 15:07:50;;;;;;;2.52;2.00;;;;;;;13.89;24.66;100283.81;1826976;78;25737;-63
2021/04/27 15:10:20;;;;;;;3.70;2.30;;;;;;;13.66;25.19;100283.34;1825669;78;26348;-62
2021/04/27 15:12:48;;;;;;;3.12;2.00;;;;;;;13.53;25.19;100286.52;1817189;77;26318;-62
2021/04/27 15:15:18;;;;;;;1.98;1.77;;;;;;;13.37;25.27;100278.94;1815938;78;25643;-61
2021/04/27 15:17:47;;;;;;;4.22;1.98;;;;;;;13.20;25.47;100280.36;1826366;78;25611;-62
2021/04/27 15:20:16;;;;;;;3.90;2.40;;;;;;;13.07;25.76;100281.59;1798579;78;25681;-62
2021/04/27 15:22:43;;;;;;;4.22;2.30;;;;;;;13.04;25.81;100275.48;1825842;78;25608;-62
2021/04/27 15:25:16;;;;;;;3.40;2.00;;;;;;;12.93;25.93;100274.23;1826150;78;25693;-62
2021/04/27 15:27:45;;;;;;;3.33;2.30;;;;;;;12.85;26.04;100277.20;1825976;78;25617;-62
2021/04/27 15:30:15;;;;;;;2.22;1.85;;;;;;;12.78;26.24;100274.77;1826185;78;25512;-62
2021/04/27 15:32:44;;;;;;;;;;;;;;;12.75;26.16;100274.84;1826629;78;26788;-62
2021/04/27 15:35:14;;;;;;;3.33;2.20;;;;;;;12.63;26.10;100272.00;1822067;78;25583;-62
2021/04/27 15:37:46;;;;;;;4.00;2.30;;;;;;;12.51;26.35;100274.84;1821007;77;25686;-62
2021/04/27 15:40:20;;;;;;;4.22;1.82;;;;;;;12.41;26.56;100277.07;1826178;78;25669;-62
2021/04/27 15:42:53;;;;;;;3.20;2.50;;;;;;;12.29;26.51;100269.59;1825691;78;25777;-62
2021/04/27 15:45:21;;;;;;;5.40;2.20;;;;;;;12.13;26.46;100270.64;1810582;78;26307;-61
2021/04/27 15:47:48;;;;;;;2.95;2.40;;;;;;;12.00;26.53;100265.61;1810095;78;25593;-62
2021/04/27 15:50:20;;;;;;;3.67;2.30;;;;;;;11.84;26.52;100270.69;1819148;78;25546;-62
2021/04/27 15:52:48;;;;;;;3.83;1.82;;;;;;;11.64;26.57;100266.67;1807105;78;25708;-63
2021/04/27 15:55:36;;;;;;;3.17;2.30;;;;;;;11.46;26.83;100263.14;1806443;79;25588;-62
2021/04/27 15:58:05;;;;;;;3.40;2.37;;;;;;;11.35;27.11;100259.12;1806879;78;25846;-67
2021/04/27 16:00:33;;;;;;;3.70;2.22;;;;;;;11.26;27.25;100259.67;1807236;79;25680;-67
2021/04/27 16:03:00;;;;;;;8.13;2.60;;;;;;;11.18;27.33;100255.25;1807405;79;25668;-67
2021/04/27 16:05:29;;;;;;;2.35;1.98;;;;;;;11.12;27.58;100253.81;1807309;79;25612;-61
2021/04/27 16:07:58;;;;;;;5.70;2.20;;;;;;;11.08;27.54;100256.09;1806844;78;25876;-62
2021/04/27 16:10:26;;;;;;;2.12;1.92;;;;;;;10.98;27.56;100249.05;1806460;78;26299;-62
2021/04/27 16:13:10;;;;;;;2.42;2.12;;;;;;;10.87;27.67;100249.09;1815750;77;26210;-63
2021/04/27 16:15:55;;;;;;;4.78;2.52;;;;;;;10.78;27.81;100247.70;1800154;77;25687;-63
2021/04/27 16:18:22;;;;;;;8.38;3.80;;;;;;;10.69;28.11;100245.50;1818298;78;25660;-63
2021/04/27 16:20:49;;;;;;;9.45;3.92;;;;;;;10.65;28.72;100244.76;1817981;78;25738;-63
2021/04/27 16:23:15;;;;;;;4.78;3.25;;;;;;;10.67;28.87;100248.51;1815106;78;25849;-63
2021/04/27 16:25:43;;;;;;;5.62;2.95;;;;;;;10.64;28.98;100247.23;1777624;79;26304;-62
2021/04/27 16:28:12;;;;;;;6.53;2.98;;;;;;;10.63;29.15;100242.92;1842097;77;25682;-63
2021/04/27 16:30:41;;;;;;;5.53;2.50;;;;;;;10.61;29.18;100247.06;1821975;77;25702;-63
2021/04/27 16:33:10;;;;;;;3.35;2.95;;;;;;;10.58;29.18;100246.33;1814025;78;25693;-62
2021/04/27 16:35:37;;;;;;;4.30;2.40;;;;;;;10.52;29.19;100245.66;1813699;78;25733;-62
2021/04/27 16:38:04;;;;;;;4.85;2.70;;;;;;;10.44;29.08;100247.20;1814571;79;25603;-64
2021/04/27 16:40:32;;;;;;;3.37;2.42;;;;;;;10.36;29.34;100247.94;1814469;78;25257;-63
2021/04/27 16:43:00;;;;;;;5.78;2.47;;;;;;;10.32;29.43;100244.80;1814803;79;25903;-62
2021/04/27 16:45:28;;;;;;;2.35;2.15;;;;;;;10.25;29.42;100243.87;1814974;79;25569;-62
2021/04/27 16:47:55;;;;;;;7.83;3.00;;;;;;;10.19;29.60;100244.53;1814630;78;25740;-62
2021/04/27 16:50:25;;;;;;;3.35;2.80;;;;;;;10.12;29.80;100249.57;1785074;78;25734;-62
2021/04/27 16:52:53;;;;;;;8.03;2.40;;;;;;;10.04;29.83;100240.28;1785299;78;26252;-62
2021/04/27 16:55:22;;;;;;;2.70;2.30;;;;;;;9.98;29.88;100252.33;1816675;78;26163;-63
2021/04/27 16:57:50;;;;;;;4.75;3.22;;;;;;;9.91;29.89;100251.95;1816735;78;25588;-61
2021/04/27 17:00:21;;;;;;;6.20;3.42;;;;;;;9.84;30.26;100253.73;1816868;78;26800;-63
2021/04/27 17:02:48;;;;;;;8.43;3.98;;;;;;;9.78;30.35;100243.34;1816945;78;25909;-63
2021/04/27 17:05:17;;;;;;;6.58;4.08;;;;;;;9.67;30.50;100250.31;1817133;78;25663;-62
2021/04/27 17:07:45;;;;;;;7.75;4.35;;;;;;;9.61;30.90;100252.08;1816968;78;25639;-62
2021/04/27 17:10:14;;;;;;;5.22;2.70;;;;;;;9.52;31.15;100251.44;1816791;78;25539;-62
2021/04/27 17:12:43;;;;;;;4.42;3.08;;;;;;;9.43;30.89;100253.80;1817160;78;26520;-62
2021/04/27 17:15:12;;;;;;;5.62;3.40;;;;;;;9.33;30.99;100250.22;1816939;78;26275;-62
2021/04/27 17:17:39;;;;;;;5.97;3.37;;;;;;;9.24;31.23;100244.47;1817248;78;25680;-62
2021/04/27 17:20:08;;;;;;;5.37;3.10;;;;;;;9.16;31.45;100247.34;1816890;78;25629;-62
2021/04/27 17:22:35;;;;;;;5.25;2.75;;;;;;;9.03;31.41;100247.57;1816951;78;25634;-62
2021/04/27 17:25:03;;;;;;;4.85;3.30;;;;;;;8.92;31.56;100246.16;1816812;78;28092;-62